sensor_id;sensor_type;location;lat;lon;timestamp;P1;durP1;ratioP1;P2;durP2;ratioP2
4638;SDS011;2332;38.646;-9.154;2022-08-24T00:00:12;12.47;;;6.10;;
4638;SDS011;2332;38.646;-9.154;2022-08-24T00:02:39;16.13;;;6.27;;
4638;SDS011;2332;38.646;-9.154;2022-08-24T00:05:05;15.00;;;6.97;;
4638;SDS011;2332;38.646;-9.154;2022-08-24T00:07:32;8.20;;;5.80;;
4638;SDS011;2332;38.646;-9.154;2022-08-24T00:09:58;10.87;;;6.67;;
4638;SDS011;2332;38.646;-9.154;2022-08-24T00:12:24;9.93;;;5.93;;
4638;SDS011;2332;38.646;-9.154;2022-08-24T00:14:50;9.20;;;5.73;;
4638;SDS011;2332;38.646;-9.154;2022-08-24T00:17:18;8.03;;;5.43;;
4638;SDS011;2332;38.646;-9.154;2022-08-24T00:19:44;10.97;;;5.10;;
4638;SDS011;2332;38.646;-9.154;2022-08-24T00:22:10;12.67;;;6.10;;
4638;SDS011;2332;38.646;-9.154;2022-08-24T00:24:37;8.20;;;5.20;;
4638;SDS011;2332;38.646;-9.154;2022-08-24T00:27:03;12.70;;;5.57;;
4638;SDS011;2332;38.646;-9.154;2022-08-24T00:29:30;9.00;;;5.83;;
4638;SDS011;2332;38.646;-9.154;2022-08-24T00:31:56;8.97;;;5.63;;
4638;SDS011;2332;38.646;-9.154;2022-08-24T00:34:21;10.50;;;6.30;;
4638;SDS011;2332;38.646;-9.154;2022-08-24T00:36:47;11.40;;;5.83;;
4638;SDS011;2332;38.646;-9.154;2022-08-24T00:39:12;7.53;;;5.10;;
4638;SDS011;2332;38.646;-9.154;2022-08-24T00:41:42;13.10;;;6.20;;
4638;SDS011;2332;38.646;-9.154;2022-08-24T00:44:09;6.93;;;4.70;;
4638;SDS011;2332;38.646;-9.154;2022-08-24T00:46:39;5.83;;;4.83;;
4638;SDS011;2332;38.646;-9.154;2022-08-24T00:49:17;7.33;;;4.80;;
4638;SDS011;2332;38.646;-9.154;2022-08-24T00:52:01;7.70;;;5.53;;
4638;SDS011;2332;38.646;-9.154;2022-08-24T00:54:29;7.10;;;5.03;;
4638;SDS011;2332;38.646;-9.154;2022-08-24T00:56:57;5.13;;;4.63;;
4638;SDS011;2332;38.646;-9.154;2022-08-24T00:59:32;7.50;;;5.30;;
4638;SDS011;2332;38.646;-9.154;2022-08-24T01:02:04;5.90;;;5.00;;
4638;SDS011;2332;38.646;-9.154;2022-08-24T01:04:38;9.03;;;5.07;;
4638;SDS011;2332;38.646;-9.154;2022-08-24T01:07:07;9.07;;;4.60;;
4638;SDS011;2332;38.646;-9.154;2022-08-24T01:09:33;7.77;;;4.90;;
4638;SDS011;2332;38.646;-9.154;2022-08-24T01:11:59;6.83;;;4.37;;
4638;SDS011;2332;38.646;-9.154;2022-08-24T01:14:25;7.63;;;4.77;;
4638;SDS011;2332;38.646;-9.154;2022-08-24T01:16:50;4.83;;;4.43;;
4638;SDS011;2332;38.646;-9.154;2022-08-24T01:19:36;6.70;;;4.70;;
4638;SDS011;2332;38.646;-9.154;2022-08-24T01:24:53;5.43;;;4.50;;
4638;SDS011;2332;38.646;-9.154;2022-08-24T01:27:19;6.47;;;4.73;;
4638;SDS011;2332;38.646;-9.154;2022-08-24T01:29:44;8.70;;;5.00;;
4638;SDS011;2332;38.646;-9.154;2022-08-24T01:32:11;5.03;;;4.63;;
4638;SDS011;2332;38.646;-9.154;2022-08-24T01:34:37;5.27;;;4.80;;
4638;SDS011;2332;38.646;-9.154;2022-08-24T01:37:03;5.50;;;5.00;;
4638;SDS011;2332;38.646;-9.154;2022-08-24T01:39:36;6.60;;;5.00;;
4638;SDS011;2332;38.646;-9.154;2022-08-24T01:42:05;4.90;;;4.40;;
4638;SDS011;2332;38.646;-9.154;2022-08-24T01:44:32;4.70;;;4.40;;
4638;SDS011;2332;38.646;-9.154;2022-08-24T01:46:59;4.93;;;4.50;;
4638;SDS011;2332;38.646;-9.154;2022-08-24T01:49:27;3.97;;;3.73;;
4638;SDS011;2332;38.646;-9.154;2022-08-24T01:51:54;3.43;;;3.13;;
4638;SDS011;2332;38.646;-9.154;2022-08-24T01:54:20;5.67;;;3.13;;
4638;SDS011;2332;38.646;-9.154;2022-08-24T01:56:46;3.43;;;3.23;;
4638;SDS011;2332;38.646;-9.154;2022-08-24T01:59:12;2.93;;;2.80;;
4638;SDS011;2332;38.646;-9.154;2022-08-24T02:01:40;4.90;;;3.43;;
4638;SDS011;2332;38.646;-9.154;2022-08-24T02:04:09;3.43;;;2.30;;
4638;SDS011;2332;38.646;-9.154;2022-08-24T02:06:35;2.20;;;2.10;;
4638;SDS011;2332;38.646;-9.154;2022-08-24T02:09:02;4.73;;;2.57;;
4638;SDS011;2332;38.646;-9.154;2022-08-24T02:11:28;2.30;;;2.00;;
4638;SDS011;2332;38.646;-9.154;2022-08-24T02:13:53;2.00;;;1.90;;
4638;SDS011;2332;38.646;-9.154;2022-08-24T02:16:19;2.07;;;1.97;;
4638;SDS011;2332;38.646;-9.154;2022-08-24T02:18:45;2.63;;;2.17;;
4638;SDS011;2332;38.646;-9.154;2022-08-24T02:21:11;2.57;;;2.33;;
4638;SDS011;2332;38.646;-9.154;2022-08-24T02:23:41;3.00;;;1.97;;
4638;SDS011;2332;38.646;-9.154;2022-08-24T02:26:07;1.93;;;1.83;;
4638;SDS011;2332;38.646;-9.154;2022-08-24T02:28:34;3.30;;;1.73;;
4638;SDS011;2332;38.646;-9.154;2022-08-24T02:31:00;2.00;;;1.80;;
4638;SDS011;2332;38.646;-9.154;2022-08-24T02:33:26;2.13;;;1.90;;
4638;SDS011;2332;38.646;-9.154;2022-08-24T02:35:52;1.37;;;1.17;;
4638;SDS011;2332;38.646;-9.154;2022-08-24T02:38:18;2.30;;;1.70;;
4638;SDS011;2332;38.646;-9.154;2022-08-24T02:40:47;1.50;;;1.40;;
4638;SDS011;2332;38.646;-9.154;2022-08-24T02:43:22;1.37;;;1.27;;
4638;SDS011;2332;38.646;-9.154;2022-08-24T02:45:48;4.57;;;1.60;;
4638;SDS011;2332;38.646;-9.154;2022-08-24T02:48:14;1.63;;;1.40;;
4638;SDS011;2332;38.646;-9.154;2022-08-24T02:50:41;1.20;;;1.10;;
4638;SDS011;2332;38.646;-9.154;2022-08-24T02:53:08;1.80;;;1.63;;
4638;SDS011;2332;38.646;-9.154;2022-08-24T02:55:35;1.20;;;1.20;;
4638;SDS011;2332;38.646;-9.154;2022-08-24T02:58:03;1.67;;;1.57;;
4638;SDS011;2332;38.646;-9.154;2022-08-24T03:00:29;2.47;;;1.20;;
4638;SDS011;2332;38.646;-9.154;2022-08-24T03:02:55;6.20;;;1.50;;
4638;SDS011;2332;38.646;-9.154;2022-08-24T03:05:21;1.73;;;1.63;;
4638;SDS011;2332;38.646;-9.154;2022-08-24T03:07:47;1.90;;;1.60;;
4638;SDS011;2332;38.646;-9.154;2022-08-24T03:10:13;1.70;;;1.60;;
4638;SDS011;2332;38.646;-9.154;2022-08-24T03:12:39;1.87;;;1.77;;
4638;SDS011;2332;38.646;-9.154;2022-08-24T03:15:05;1.67;;;1.57;;
4638;SDS011;2332;38.646;-9.154;2022-08-24T03:17:34;1.90;;;1.80;;
4638;SDS011;2332;38.646;-9.154;2022-08-24T03:20:03;9.50;;;2.10;;
4638;SDS011;2332;38.646;-9.154;2022-08-24T03:22:31;1.57;;;1.57;;
4638;SDS011;2332;38.646;-9.154;2022-08-24T03:24:58;1.60;;;1.60;;
4638;SDS011;2332;38.646;-9.154;2022-08-24T03:27:23;1.37;;;1.37;;
4638;SDS011;2332;38.646;-9.154;2022-08-24T03:29:49;1.57;;;1.57;;
4638;SDS011;2332;38.646;-9.154;2022-08-24T03:32:15;1.97;;;1.87;;
4638;SDS011;2332;38.646;-9.154;2022-08-24T03:34:44;2.53;;;2.10;;
4638;SDS011;2332;38.646;-9.154;2022-08-24T03:37:10;2.00;;;1.90;;
4638;SDS011;2332;38.646;-9.154;2022-08-24T03:39:36;2.13;;;2.03;;
4638;SDS011;2332;38.646;-9.154;2022-08-24T03:42:03;1.97;;;1.97;;
4638;SDS011;2332;38.646;-9.154;2022-08-24T03:44:29;2.00;;;1.90;;
4638;SDS011;2332;38.646;-9.154;2022-08-24T03:46:54;1.57;;;1.50;;
4638;SDS011;2332;38.646;-9.154;2022-08-24T03:49:20;1.93;;;1.83;;
4638;SDS011;2332;38.646;-9.154;2022-08-24T03:51:46;2.03;;;1.93;;
4638;SDS011;2332;38.646;-9.154;2022-08-24T03:54:13;1.57;;;1.57;;
4638;SDS011;2332;38.646;-9.154;2022-08-24T03:56:39;1.80;;;1.70;;
4638;SDS011;2332;38.646;-9.154;2022-08-24T03:59:06;2.10;;;2.10;;
4638;SDS011;2332;38.646;-9.154;2022-08-24T04:01:32;5.90;;;1.80;;
4638;SDS011;2332;38.646;-9.154;2022-08-24T04:03:58;2.17;;;2.13;;
4638;SDS011;2332;38.646;-9.154;2022-08-24T04:06:23;1.93;;;1.73;;
4638;SDS011;2332;38.646;-9.154;2022-08-24T04:08:49;1.90;;;1.80;;
4638;SDS011;2332;38.646;-9.154;2022-08-24T04:11:17;2.93;;;1.90;;
4638;SDS011;2332;38.646;-9.154;2022-08-24T04:13:45;2.07;;;2.07;;
4638;SDS011;2332;38.646;-9.154;2022-08-24T04:16:13;2.17;;;2.07;;
4638;SDS011;2332;38.646;-9.154;2022-08-24T04:18:43;2.87;;;1.90;;
4638;SDS011;2332;38.646;-9.154;2022-08-24T04:21:16;2.33;;;2.23;;
4638;SDS011;2332;38.646;-9.154;2022-08-24T04:23:56;1.57;;;1.57;;
4638;SDS011;2332;38.646;-9.154;2022-08-24T04:26:23;2.30;;;2.20;;
4638;SDS011;2332;38.646;-9.154;2022-08-24T04:28:49;3.50;;;2.60;;
4638;SDS011;2332;38.646;-9.154;2022-08-24T04:31:16;2.60;;;2.23;;
4638;SDS011;2332;38.646;-9.154;2022-08-24T04:33:42;3.17;;;2.87;;
4638;SDS011;2332;38.646;-9.154;2022-08-24T04:36:09;2.50;;;2.40;;
4638;SDS011;2332;38.646;-9.154;2022-08-24T04:38:36;2.07;;;1.97;;
4638;SDS011;2332;38.646;-9.154;2022-08-24T04:41:03;2.10;;;2.00;;
4638;SDS011;2332;38.646;-9.154;2022-08-24T04:43:30;2.50;;;2.40;;
4638;SDS011;2332;38.646;-9.154;2022-08-24T04:45:55;5.23;;;2.13;;
4638;SDS011;2332;38.646;-9.154;2022-08-24T04:48:21;2.20;;;2.10;;
4638;SDS011;2332;38.646;-9.154;2022-08-24T04:50:47;6.00;;;2.50;;
4638;SDS011;2332;38.646;-9.154;2022-08-24T04:53:13;2.27;;;2.17;;
4638;SDS011;2332;38.646;-9.154;2022-08-24T04:55:41;2.43;;;2.23;;
4638;SDS011;2332;38.646;-9.154;2022-08-24T04:58:09;3.50;;;2.60;;
4638;SDS011;2332;38.646;-9.154;2022-08-24T05:00:36;2.33;;;2.27;;
4638;SDS011;2332;38.646;-9.154;2022-08-24T05:03:02;2.43;;;2.33;;
4638;SDS011;2332;38.646;-9.154;2022-08-24T05:05:28;3.57;;;2.73;;
4638;SDS011;2332;38.646;-9.154;2022-08-24T05:07:53;3.27;;;2.90;;
4638;SDS011;2332;38.646;-9.154;2022-08-24T05:10:19;2.20;;;2.10;;
4638;SDS011;2332;38.646;-9.154;2022-08-24T05:12:45;2.90;;;2.40;;
4638;SDS011;2332;38.646;-9.154;2022-08-24T05:15:11;3.30;;;3.00;;
4638;SDS011;2332;38.646;-9.154;2022-08-24T05:17:37;2.20;;;2.10;;
4638;SDS011;2332;38.646;-9.154;2022-08-24T05:20:05;2.50;;;2.40;;
4638;SDS011;2332;38.646;-9.154;2022-08-24T05:22:33;2.33;;;2.23;;
4638;SDS011;2332;38.646;-9.154;2022-08-24T05:24:59;2.50;;;2.23;;
4638;SDS011;2332;38.646;-9.154;2022-08-24T05:27:25;3.23;;;2.10;;
4638;SDS011;2332;38.646;-9.154;2022-08-24T05:29:51;3.00;;;2.70;;
4638;SDS011;2332;38.646;-9.154;2022-08-24T05:32:18;3.87;;;2.47;;
4638;SDS011;2332;38.646;-9.154;2022-08-24T05:34:43;2.17;;;2.07;;
4638;SDS011;2332;38.646;-9.154;2022-08-24T05:37:09;2.50;;;2.40;;
4638;SDS011;2332;38.646;-9.154;2022-08-24T05:39:35;2.43;;;2.33;;
4638;SDS011;2332;38.646;-9.154;2022-08-24T05:42:00;2.10;;;2.00;;
4638;SDS011;2332;38.646;-9.154;2022-08-24T05:44:26;4.50;;;2.60;;
4638;SDS011;2332;38.646;-9.154;2022-08-24T05:46:55;2.60;;;2.40;;
4638;SDS011;2332;38.646;-9.154;2022-08-24T05:49:22;2.70;;;2.60;;
4638;SDS011;2332;38.646;-9.154;2022-08-24T05:51:49;3.07;;;2.73;;
4638;SDS011;2332;38.646;-9.154;2022-08-24T05:54:15;2.77;;;2.60;;
4638;SDS011;2332;38.646;-9.154;2022-08-24T05:56:41;2.47;;;2.37;;
4638;SDS011;2332;38.646;-9.154;2022-08-24T05:59:07;2.30;;;2.20;;
4638;SDS011;2332;38.646;-9.154;2022-08-24T06:01:33;5.77;;;2.67;;
4638;SDS011;2332;38.646;-9.154;2022-08-24T06:03:59;2.93;;;2.70;;
4638;SDS011;2332;38.646;-9.154;2022-08-24T06:06:25;3.20;;;3.00;;
4638;SDS011;2332;38.646;-9.154;2022-08-24T06:08:53;3.10;;;2.67;;
4638;SDS011;2332;38.646;-9.154;2022-08-24T06:13:49;2.70;;;2.60;;
4638;SDS011;2332;38.646;-9.154;2022-08-24T06:16:18;2.50;;;2.40;;
4638;SDS011;2332;38.646;-9.154;2022-08-24T06:18:44;3.37;;;3.17;;
4638;SDS011;2332;38.646;-9.154;2022-08-24T06:21:11;2.57;;;2.47;;
4638;SDS011;2332;38.646;-9.154;2022-08-24T06:23:38;2.73;;;2.63;;
4638;SDS011;2332;38.646;-9.154;2022-08-24T06:26:06;2.70;;;2.60;;
4638;SDS011;2332;38.646;-9.154;2022-08-24T06:28:55;3.30;;;3.10;;
4638;SDS011;2332;38.646;-9.154;2022-08-24T06:31:22;3.00;;;2.70;;
4638;SDS011;2332;38.646;-9.154;2022-08-24T06:33:50;2.90;;;2.80;;
4638;SDS011;2332;38.646;-9.154;2022-08-24T06:36:19;2.70;;;2.60;;
4638;SDS011;2332;38.646;-9.154;2022-08-24T06:38:45;2.87;;;2.77;;
4638;SDS011;2332;38.646;-9.154;2022-08-24T06:41:11;3.60;;;3.30;;
4638;SDS011;2332;38.646;-9.154;2022-08-24T06:43:37;3.00;;;2.90;;
4638;SDS011;2332;38.646;-9.154;2022-08-24T06:46:04;2.80;;;2.70;;
4638;SDS011;2332;38.646;-9.154;2022-08-24T06:48:30;3.83;;;2.93;;
4638;SDS011;2332;38.646;-9.154;2022-08-24T06:50:56;5.27;;;3.10;;
4638;SDS011;2332;38.646;-9.154;2022-08-24T06:53:23;3.57;;;3.30;;
4638;SDS011;2332;38.646;-9.154;2022-08-24T06:58:15;3.83;;;3.40;;
4638;SDS011;2332;38.646;-9.154;2022-08-24T07:00:42;3.33;;;3.13;;
4638;SDS011;2332;38.646;-9.154;2022-08-24T07:03:10;3.63;;;3.43;;
4638;SDS011;2332;38.646;-9.154;2022-08-24T07:05:36;3.50;;;3.20;;
4638;SDS011;2332;38.646;-9.154;2022-08-24T07:08:02;3.60;;;3.40;;
4638;SDS011;2332;38.646;-9.154;2022-08-24T07:10:28;3.47;;;3.10;;
4638;SDS011;2332;38.646;-9.154;2022-08-24T07:12:55;3.83;;;3.30;;
4638;SDS011;2332;38.646;-9.154;2022-08-24T07:15:21;2.67;;;2.57;;
4638;SDS011;2332;38.646;-9.154;2022-08-24T07:17:47;3.40;;;3.20;;
4638;SDS011;2332;38.646;-9.154;2022-08-24T07:20:13;6.67;;;3.13;;
4638;SDS011;2332;38.646;-9.154;2022-08-24T07:22:38;3.60;;;3.07;;
4638;SDS011;2332;38.646;-9.154;2022-08-24T07:25:04;4.10;;;3.83;;
4638;SDS011;2332;38.646;-9.154;2022-08-24T07:27:31;3.80;;;3.50;;
4638;SDS011;2332;38.646;-9.154;2022-08-24T07:29:57;3.63;;;3.33;;
4638;SDS011;2332;38.646;-9.154;2022-08-24T07:32:23;3.53;;;3.30;;
4638;SDS011;2332;38.646;-9.154;2022-08-24T07:34:48;3.97;;;2.90;;
4638;SDS011;2332;38.646;-9.154;2022-08-24T07:37:14;5.90;;;2.93;;
4638;SDS011;2332;38.646;-9.154;2022-08-24T07:39:40;3.23;;;3.13;;
4638;SDS011;2332;38.646;-9.154;2022-08-24T07:42:06;3.63;;;3.30;;
4638;SDS011;2332;38.646;-9.154;2022-08-24T07:44:32;3.13;;;3.03;;
4638;SDS011;2332;38.646;-9.154;2022-08-24T07:46:58;4.37;;;3.87;;
4638;SDS011;2332;38.646;-9.154;2022-08-24T07:49:24;3.60;;;3.30;;
4638;SDS011;2332;38.646;-9.154;2022-08-24T07:51:50;3.80;;;3.60;;
4638;SDS011;2332;38.646;-9.154;2022-08-24T07:54:17;3.33;;;3.13;;
4638;SDS011;2332;38.646;-9.154;2022-08-24T07:56:44;3.23;;;3.03;;
4638;SDS011;2332;38.646;-9.154;2022-08-24T07:59:10;3.70;;;3.40;;
4638;SDS011;2332;38.646;-9.154;2022-08-24T08:01:35;3.70;;;3.50;;
4638;SDS011;2332;38.646;-9.154;2022-08-24T08:04:02;3.73;;;3.53;;
4638;SDS011;2332;38.646;-9.154;2022-08-24T08:06:28;13.87;;;4.40;;
4638;SDS011;2332;38.646;-9.154;2022-08-24T08:08:54;6.00;;;3.10;;
4638;SDS011;2332;38.646;-9.154;2022-08-24T08:11:19;4.13;;;3.10;;
4638;SDS011;2332;38.646;-9.154;2022-08-24T08:13:45;4.47;;;2.90;;
4638;SDS011;2332;38.646;-9.154;2022-08-24T08:16:10;4.27;;;3.40;;
4638;SDS011;2332;38.646;-9.154;2022-08-24T08:18:36;2.53;;;2.33;;
4638;SDS011;2332;38.646;-9.154;2022-08-24T08:21:02;2.90;;;2.70;;
4638;SDS011;2332;38.646;-9.154;2022-08-24T08:23:28;9.03;;;3.17;;
4638;SDS011;2332;38.646;-9.154;2022-08-24T08:26:14;7.63;;;2.60;;
4638;SDS011;2332;38.646;-9.154;2022-08-24T08:28:41;5.63;;;2.50;;
4638;SDS011;2332;38.646;-9.154;2022-08-24T08:31:07;2.30;;;2.20;;
4638;SDS011;2332;38.646;-9.154;2022-08-24T08:33:32;3.30;;;2.53;;
4638;SDS011;2332;38.646;-9.154;2022-08-24T08:36:02;3.73;;;1.90;;
4638;SDS011;2332;38.646;-9.154;2022-08-24T08:38:30;2.47;;;2.00;;
4638;SDS011;2332;38.646;-9.154;2022-08-24T08:51:34;1.67;;;1.57;;
4638;SDS011;2332;38.646;-9.154;2022-08-24T08:54:19;3.50;;;1.80;;
4638;SDS011;2332;38.646;-9.154;2022-08-24T09:00:09;3.57;;;2.30;;
4638;SDS011;2332;38.646;-9.154;2022-08-24T09:12:48;4.83;;;1.70;;
4638;SDS011;2332;38.646;-9.154;2022-08-24T09:15:37;2.20;;;1.83;;
4638;SDS011;2332;38.646;-9.154;2022-08-24T09:21:07;1.67;;;1.57;;
4638;SDS011;2332;38.646;-9.154;2022-08-24T09:23:38;3.13;;;1.40;;
4638;SDS011;2332;38.646;-9.154;2022-08-24T09:32:35;1.20;;;1.20;;
4638;SDS011;2332;38.646;-9.154;2022-08-24T09:40:38;1.00;;;1.00;;
4638;SDS011;2332;38.646;-9.154;2022-08-24T09:43:16;2.37;;;1.40;;
4638;SDS011;2332;38.646;-9.154;2022-08-24T09:46:26;1.97;;;1.10;;
4638;SDS011;2332;38.646;-9.154;2022-08-24T09:55:06;3.20;;;1.70;;
4638;SDS011;2332;38.646;-9.154;2022-08-24T10:00:30;2.00;;;1.30;;
4638;SDS011;2332;38.646;-9.154;2022-08-24T10:03:13;7.70;;;1.53;;
4638;SDS011;2332;38.646;-9.154;2022-08-24T10:05:55;2.90;;;1.80;;
4638;SDS011;2332;38.646;-9.154;2022-08-24T10:22:17;1.67;;;1.10;;
4638;SDS011;2332;38.646;-9.154;2022-08-24T10:30:13;1.70;;;1.60;;
4638;SDS011;2332;38.646;-9.154;2022-08-24T10:54:22;1.67;;;1.57;;
4638;SDS011;2332;38.646;-9.154;2022-08-24T10:56:55;1.70;;;1.60;;
4638;SDS011;2332;38.646;-9.154;2022-08-24T11:02:09;2.80;;;1.70;;
4638;SDS011;2332;38.646;-9.154;2022-08-24T11:04:54;4.97;;;1.60;;
4638;SDS011;2332;38.646;-9.154;2022-08-24T11:07:27;4.23;;;1.30;;
4638;SDS011;2332;38.646;-9.154;2022-08-24T11:09:57;3.70;;;1.50;;
4638;SDS011;2332;38.646;-9.154;2022-08-24T11:12:28;3.17;;;1.60;;
4638;SDS011;2332;38.646;-9.154;2022-08-24T11:14:57;2.40;;;1.30;;
4638;SDS011;2332;38.646;-9.154;2022-08-24T11:17:25;8.80;;;2.23;;
4638;SDS011;2332;38.646;-9.154;2022-08-24T11:19:54;3.70;;;1.40;;
4638;SDS011;2332;38.646;-9.154;2022-08-24T11:25:19;4.00;;;1.60;;
4638;SDS011;2332;38.646;-9.154;2022-08-24T11:27:50;4.93;;;1.57;;
4638;SDS011;2332;38.646;-9.154;2022-08-24T11:32:44;1.93;;;1.40;;
4638;SDS011;2332;38.646;-9.154;2022-08-24T11:38:18;2.77;;;1.70;;
4638;SDS011;2332;38.646;-9.154;2022-08-24T11:46:23;1.90;;;1.80;;
4638;SDS011;2332;38.646;-9.154;2022-08-24T11:49:26;1.83;;;1.70;;
4638;SDS011;2332;38.646;-9.154;2022-08-24T11:52:15;2.60;;;1.97;;
4638;SDS011;2332;38.646;-9.154;2022-08-24T11:59:54;4.23;;;1.90;;
4638;SDS011;2332;38.646;-9.154;2022-08-24T12:05:03;1.80;;;1.70;;
4638;SDS011;2332;38.646;-9.154;2022-08-24T12:15:33;1.93;;;1.83;;
4638;SDS011;2332;38.646;-9.154;2022-08-24T12:18:03;1.80;;;1.70;;
4638;SDS011;2332;38.646;-9.154;2022-08-24T12:20:49;2.13;;;1.77;;
4638;SDS011;2332;38.646;-9.154;2022-08-24T12:24:02;2.40;;;2.13;;
4638;SDS011;2332;38.646;-9.154;2022-08-24T12:26:24;2.00;;;1.67;;
4638;SDS011;2332;38.646;-9.154;2022-08-24T12:28:58;2.00;;;1.80;;
4638;SDS011;2332;38.646;-9.154;2022-08-24T12:31:33;2.23;;;2.07;;
4638;SDS011;2332;38.646;-9.154;2022-08-24T12:34:04;5.37;;;2.20;;
4638;SDS011;2332;38.646;-9.154;2022-08-24T12:36:40;1.87;;;1.80;;
4638;SDS011;2332;38.646;-9.154;2022-08-24T12:39:26;3.53;;;1.90;;
4638;SDS011;2332;38.646;-9.154;2022-08-24T12:44:47;1.93;;;1.93;;
4638;SDS011;2332;38.646;-9.154;2022-08-24T12:47:24;3.33;;;2.27;;
4638;SDS011;2332;38.646;-9.154;2022-08-24T12:50:03;2.20;;;2.03;;
4638;SDS011;2332;38.646;-9.154;2022-08-24T13:01:29;2.20;;;2.10;;
4638;SDS011;2332;38.646;-9.154;2022-08-24T13:04:06;3.47;;;2.30;;
4638;SDS011;2332;38.646;-9.154;2022-08-24T13:09:13;2.10;;;1.67;;
4638;SDS011;2332;38.646;-9.154;2022-08-24T13:11:42;1.40;;;1.40;;
4638;SDS011;2332;38.646;-9.154;2022-08-24T13:29:41;4.63;;;1.90;;
4638;SDS011;2332;38.646;-9.154;2022-08-24T13:32:16;2.10;;;1.67;;
4638;SDS011;2332;38.646;-9.154;2022-08-24T13:34:47;2.80;;;1.83;;
4638;SDS011;2332;38.646;-9.154;2022-08-24T13:37:16;1.73;;;1.63;;
4638;SDS011;2332;38.646;-9.154;2022-08-24T13:43:00;5.17;;;1.80;;
4638;SDS011;2332;38.646;-9.154;2022-08-24T13:50:33;2.50;;;1.37;;
4638;SDS011;2332;38.646;-9.154;2022-08-24T13:53:13;1.83;;;1.53;;
4638;SDS011;2332;38.646;-9.154;2022-08-24T14:02:10;1.87;;;1.77;;
4638;SDS011;2332;38.646;-9.154;2022-08-24T14:15:56;0.90;;;0.90;;
4638;SDS011;2332;38.646;-9.154;2022-08-24T14:19:05;1.53;;;1.00;;
4638;SDS011;2332;38.646;-9.154;2022-08-24T14:27:07;0.90;;;0.80;;
4638;SDS011;2332;38.646;-9.154;2022-08-24T14:29:36;2.40;;;1.23;;
4638;SDS011;2332;38.646;-9.154;2022-08-24T14:37:19;1.77;;;0.90;;
4638;SDS011;2332;38.646;-9.154;2022-08-24T14:40:19;1.33;;;0.80;;
4638;SDS011;2332;38.646;-9.154;2022-08-24T14:42:55;5.70;;;1.17;;
4638;SDS011;2332;38.646;-9.154;2022-08-24T14:45:49;3.60;;;0.70;;
4638;SDS011;2332;38.646;-9.154;2022-08-24T14:51:00;1.37;;;1.10;;
4638;SDS011;2332;38.646;-9.154;2022-08-24T14:59:05;0.80;;;0.80;;
4638;SDS011;2332;38.646;-9.154;2022-08-24T15:01:58;5.13;;;1.13;;
4638;SDS011;2332;38.646;-9.154;2022-08-24T15:05:40;3.70;;;0.90;;
4638;SDS011;2332;38.646;-9.154;2022-08-24T15:07:39;2.13;;;0.90;;
4638;SDS011;2332;38.646;-9.154;2022-08-24T15:10:11;1.00;;;1.00;;
4638;SDS011;2332;38.646;-9.154;2022-08-24T15:12:59;4.87;;;1.30;;
4638;SDS011;2332;38.646;-9.154;2022-08-24T15:23:35;2.20;;;1.00;;
4638;SDS011;2332;38.646;-9.154;2022-08-24T15:29:18;1.67;;;0.93;;
4638;SDS011;2332;38.646;-9.154;2022-08-24T15:32:08;11.73;;;1.70;;
4638;SDS011;2332;38.646;-9.154;2022-08-24T15:34:41;1.10;;;0.87;;
4638;SDS011;2332;38.646;-9.154;2022-08-24T15:37:09;1.77;;;0.97;;
4638;SDS011;2332;38.646;-9.154;2022-08-24T15:39:37;4.10;;;0.80;;
4638;SDS011;2332;38.646;-9.154;2022-08-24T15:42:13;1.37;;;0.90;;
4638;SDS011;2332;38.646;-9.154;2022-08-24T15:44:40;9.20;;;0.90;;
4638;SDS011;2332;38.646;-9.154;2022-08-24T15:47:20;2.43;;;0.93;;
4638;SDS011;2332;38.646;-9.154;2022-08-24T15:50:19;3.70;;;0.70;;
4638;SDS011;2332;38.646;-9.154;2022-08-24T15:53:00;4.80;;;0.80;;
4638;SDS011;2332;38.646;-9.154;2022-08-24T15:58:20;1.70;;;0.80;;
4638;SDS011;2332;38.646;-9.154;2022-08-24T16:01:24;0.67;;;0.60;;
4638;SDS011;2332;38.646;-9.154;2022-08-24T16:04:09;0.80;;;0.60;;
4638;SDS011;2332;38.646;-9.154;2022-08-24T16:06:39;2.70;;;0.80;;
4638;SDS011;2332;38.646;-9.154;2022-08-24T16:11:33;2.20;;;0.80;;
4638;SDS011;2332;38.646;-9.154;2022-08-24T16:14:09;0.70;;;0.65;;
4638;SDS011;2332;38.646;-9.154;2022-08-24T16:16:39;1.20;;;0.90;;
4638;SDS011;2332;38.646;-9.154;2022-08-24T16:19:10;1.03;;;0.70;;
4638;SDS011;2332;38.646;-9.154;2022-08-24T16:24:27;1.33;;;0.80;;
4638;SDS011;2332;38.646;-9.154;2022-08-24T16:27:13;1.67;;;0.73;;
4638;SDS011;2332;38.646;-9.154;2022-08-24T16:29:42;0.60;;;0.60;;
4638;SDS011;2332;38.646;-9.154;2022-08-24T16:34:43;0.67;;;0.67;;
4638;SDS011;2332;38.646;-9.154;2022-08-24T16:37:11;5.10;;;0.80;;
4638;SDS011;2332;38.646;-9.154;2022-08-24T16:39:38;0.80;;;0.80;;
4638;SDS011;2332;38.646;-9.154;2022-08-24T16:42:05;0.60;;;0.60;;
4638;SDS011;2332;38.646;-9.154;2022-08-24T16:44:38;0.60;;;0.60;;
4638;SDS011;2332;38.646;-9.154;2022-08-24T16:47:05;0.80;;;0.70;;
4638;SDS011;2332;38.646;-9.154;2022-08-24T16:49:31;0.90;;;0.63;;
4638;SDS011;2332;38.646;-9.154;2022-08-24T16:51:57;1.53;;;0.70;;
4638;SDS011;2332;38.646;-9.154;2022-08-24T16:54:23;0.90;;;0.70;;
4638;SDS011;2332;38.646;-9.154;2022-08-24T16:56:51;0.87;;;0.70;;
4638;SDS011;2332;38.646;-9.154;2022-08-24T16:59:23;1.10;;;1.00;;
4638;SDS011;2332;38.646;-9.154;2022-08-24T17:01:50;1.47;;;0.60;;
4638;SDS011;2332;38.646;-9.154;2022-08-24T17:04:16;0.80;;;0.80;;
4638;SDS011;2332;38.646;-9.154;2022-08-24T17:06:45;2.27;;;1.40;;
4638;SDS011;2332;38.646;-9.154;2022-08-24T17:09:12;0.67;;;0.67;;
4638;SDS011;2332;38.646;-9.154;2022-08-24T17:11:38;0.80;;;0.70;;
4638;SDS011;2332;38.646;-9.154;2022-08-24T17:14:04;0.70;;;0.70;;
4638;SDS011;2332;38.646;-9.154;2022-08-24T17:16:31;1.67;;;0.67;;
4638;SDS011;2332;38.646;-9.154;2022-08-24T17:18:57;2.87;;;0.80;;
4638;SDS011;2332;38.646;-9.154;2022-08-24T17:21:23;2.63;;;0.90;;
4638;SDS011;2332;38.646;-9.154;2022-08-24T17:23:49;3.40;;;1.00;;
4638;SDS011;2332;38.646;-9.154;2022-08-24T17:26:15;2.10;;;0.90;;
4638;SDS011;2332;38.646;-9.154;2022-08-24T17:28:42;2.73;;;0.70;;
4638;SDS011;2332;38.646;-9.154;2022-08-24T17:31:11;7.03;;;0.90;;
4638;SDS011;2332;38.646;-9.154;2022-08-24T17:33:37;0.80;;;0.80;;
4638;SDS011;2332;38.646;-9.154;2022-08-24T17:36:03;1.97;;;1.00;;
4638;SDS011;2332;38.646;-9.154;2022-08-24T17:38:29;1.57;;;0.80;;
4638;SDS011;2332;38.646;-9.154;2022-08-24T17:40:56;1.20;;;0.97;;
4638;SDS011;2332;38.646;-9.154;2022-08-24T17:43:22;1.10;;;1.00;;
4638;SDS011;2332;38.646;-9.154;2022-08-24T17:45:49;0.80;;;0.70;;
4638;SDS011;2332;38.646;-9.154;2022-08-24T17:48:19;2.00;;;0.80;;
4638;SDS011;2332;38.646;-9.154;2022-08-24T17:50:48;3.17;;;0.80;;
4638;SDS011;2332;38.646;-9.154;2022-08-24T17:53:13;0.70;;;0.70;;
4638;SDS011;2332;38.646;-9.154;2022-08-24T17:55:39;3.37;;;0.90;;
4638;SDS011;2332;38.646;-9.154;2022-08-24T17:58:05;2.20;;;0.80;;
4638;SDS011;2332;38.646;-9.154;2022-08-24T18:00:30;2.03;;;0.80;;
4638;SDS011;2332;38.646;-9.154;2022-08-24T18:02:56;0.80;;;0.70;;
4638;SDS011;2332;38.646;-9.154;2022-08-24T18:05:21;1.43;;;0.80;;
4638;SDS011;2332;38.646;-9.154;2022-08-24T18:07:48;3.70;;;1.43;;
4638;SDS011;2332;38.646;-9.154;2022-08-24T18:10:16;2.13;;;1.10;;
4638;SDS011;2332;38.646;-9.154;2022-08-24T18:12:44;1.33;;;0.87;;
4638;SDS011;2332;38.646;-9.154;2022-08-24T18:15:10;0.80;;;0.80;;
4638;SDS011;2332;38.646;-9.154;2022-08-24T18:17:39;1.00;;;0.90;;
4638;SDS011;2332;38.646;-9.154;2022-08-24T18:20:07;3.07;;;1.00;;
4638;SDS011;2332;38.646;-9.154;2022-08-24T18:22:37;8.23;;;1.10;;
4638;SDS011;2332;38.646;-9.154;2022-08-24T18:25:11;2.10;;;0.93;;
4638;SDS011;2332;38.646;-9.154;2022-08-24T18:27:38;0.80;;;0.80;;
4638;SDS011;2332;38.646;-9.154;2022-08-24T18:30:05;2.40;;;0.87;;
4638;SDS011;2332;38.646;-9.154;2022-08-24T18:32:44;1.00;;;0.80;;
4638;SDS011;2332;38.646;-9.154;2022-08-24T18:35:09;1.20;;;0.90;;
4638;SDS011;2332;38.646;-9.154;2022-08-24T18:37:35;1.23;;;0.83;;
4638;SDS011;2332;38.646;-9.154;2022-08-24T18:40:01;3.43;;;0.80;;
4638;SDS011;2332;38.646;-9.154;2022-08-24T18:42:27;3.23;;;1.20;;
4638;SDS011;2332;38.646;-9.154;2022-08-24T18:44:53;2.57;;;0.97;;
4638;SDS011;2332;38.646;-9.154;2022-08-24T18:47:19;3.27;;;0.73;;
4638;SDS011;2332;38.646;-9.154;2022-08-24T18:49:45;2.70;;;0.83;;
4638;SDS011;2332;38.646;-9.154;2022-08-24T18:52:12;4.53;;;0.90;;
4638;SDS011;2332;38.646;-9.154;2022-08-24T18:54:40;1.10;;;0.93;;
4638;SDS011;2332;38.646;-9.154;2022-08-24T18:57:08;2.87;;;0.90;;
4638;SDS011;2332;38.646;-9.154;2022-08-24T18:59:34;2.60;;;0.90;;